Time;durP1;ratioP1;P1;durP2;ratioP2;P2;SDS_P1;SDS_P2;PMS_P1;PMS_P2;Temp;Humidity;BMP_temperature;BMP_pressure;BME280_temperature;BME280_humidity;BME280_pressure;Samples;Min_cycle;Max_cycle;Signal;HPM_P1;HPM_P2
2023/03/06 00:01:47;;;;;;;8.93;4.40;;;3.40;98.50;;;;;;4211929;28;20734;-63
2023/03/06 00:03:48;;;;;;;10.77;4.63;;;3.50;98.40;;;;;;4212391;28;20425;-63
2023/03/06 00:05:50;;;;;;;9.17;4.70;;;3.50;98.30;;;;;;4212693;28;20350;-63
2023/03/06 00:07:51;;;;;;;9.33;5.13;;;3.50;98.20;;;;;;4212977;28;20287;-64
2023/03/06 00:09:52;;;;;;;8.83;4.90;;;3.50;98.10;;;;;;4213164;28;20306;-63
2023/03/06 00:11:53;;;;;;;8.43;4.60;;;3.50;98.30;;;;;;4213510;28;20317;-63
2023/03/06 00:13:55;;;;;;;11.47;5.20;;;3.60;98.10;;;;;;4211957;28;20294;-64
2023/03/06 00:15:59;;;;;;;13.47;5.40;;;3.50;97.80;;;;;;4213644;28;20318;-63
2023/03/06 00:18:04;;;;;;;8.23;4.80;;;3.50;97.90;;;;;;4211814;28;20268;-61
2023/03/06 00:20:06;;;;;;;10.23;5.27;;;3.50;98.00;;;;;;4213628;28;20269;-63
2023/03/06 00:22:11;;;;;;;9.40;5.20;;;3.40;98.00;;;;;;4211503;28;20811;-62
2023/03/06 00:24:12;;;;;;;11.37;5.40;;;3.50;98.10;;;;;;4213622;28;20660;-64
2023/03/06 00:26:13;;;;;;;8.53;4.97;;;3.40;97.90;;;;;;4211812;28;20647;-63
2023/03/06 00:28:16;;;;;;;9.17;4.43;;;3.40;97.90;;;;;;4212668;28;20277;-63
2023/03/06 00:30:20;;;;;;;8.13;4.17;;;3.40;97.80;;;;;;4211841;28;20365;-63
2023/03/06 00:32:21;;;;;;;11.27;5.97;;;3.40;97.80;;;;;;4212230;28;20813;-62
2023/03/06 00:34:23;;;;;;;11.90;5.83;;;3.40;97.70;;;;;;4212406;28;20253;-62
2023/03/06 00:36:24;;;;;;;13.03;6.10;;;3.30;97.90;;;;;;4211897;28;20334;-63
2023/03/06 00:38:27;;;;;;;9.60;5.17;;;3.30;97.90;;;;;;4212293;28;20308;-62
2023/03/06 00:40:28;;;;;;;8.17;4.80;;;3.30;97.90;;;;;;4212234;28;20810;-63
2023/03/06 00:42:29;;;;;;;9.03;4.70;;;3.30;97.70;;;;;;4210616;28;20839;-63
2023/03/06 00:44:30;;;;;;;8.17;4.00;;;3.30;97.40;;;;;;4211997;28;20334;-63
2023/03/06 00:46:32;;;;;;;13.03;5.43;;;3.30;97.60;;;;;;4211879;28;20330;-61
2023/03/06 00:48:33;;;;;;;9.10;4.83;;;3.30;97.30;;;;;;4212078;28;20261;-63
2023/03/06 00:50:35;;;;;;;7.20;4.10;;;3.30;97.10;;;;;;4213176;28;20594;-63
2023/03/06 00:52:36;;;;;;;8.47;4.33;;;3.30;97.10;;;;;;4211580;28;20585;-63
2023/03/06 00:54:37;;;;;;;8.90;3.67;;;3.30;97.00;;;;;;4213161;28;20268;-61
2023/03/06 00:56:39;;;;;;;7.07;4.13;;;3.30;97.10;;;;;;4211158;28;20261;-65
2023/03/06 00:58:40;;;;;;;7.37;3.67;;;3.30;97.20;;;;;;4212287;28;21211;-63
2023/03/06 01:00:41;;;;;;;8.30;3.90;;;3.20;97.20;;;;;;4191804;28;20331;-64
2023/03/06 01:02:42;;;;;;;8.90;3.80;;;3.20;97.10;;;;;;4211898;28;20327;-65
2023/03/06 01:04:44;;;;;;;7.10;3.47;;;3.20;97.10;;;;;;4210610;28;20286;-63
2023/03/06 01:06:45;;;;;;;11.30;3.70;;;3.20;97.10;;;;;;4212040;28;20288;-64
2023/03/06 01:08:46;;;;;;;9.43;5.10;;;3.10;97.00;;;;;;4211879;28;20290;-64
2023/03/06 01:10:49;;;;;;;8.73;4.10;;;3.10;97.30;;;;;;4212486;28;20659;-62
2023/03/06 01:12:50;;;;;;;11.53;3.97;;;3.00;97.50;;;;;;4211787;28;20589;-63
2023/03/06 01:14:51;;;;;;;10.63;3.90;;;3.00;97.60;;;;;;4212098;28;20260;-63
2023/03/06 01:16:52;;;;;;;22.30;5.27;;;2.90;97.80;;;;;;4212369;28;20326;-61
2023/03/06 01:18:53;;;;;;;18.67;4.27;;;2.90;98.00;;;;;;4211638;28;20257;-61
2023/03/06 01:20:55;;;;;;;9.00;4.53;;;2.80;98.50;;;;;;4212000;28;20273;-62
2023/03/06 01:22:56;;;;;;;8.37;3.90;;;2.70;98.50;;;;;;4210913;28;20288;-64
2023/03/06 01:24:57;;;;;;;8.23;4.50;;;2.70;98.60;;;;;;4212811;28;20783;-62
2023/03/06 01:26:58;;;;;;;7.27;3.93;;;2.70;98.70;;;;;;4211497;28;20748;-63
2023/03/06 01:29:00;;;;;;;7.70;3.97;;;2.70;98.70;;;;;;4212121;28;20748;-63
2023/03/06 01:31:01;;;;;;;9.00;3.77;;;2.60;98.90;;;;;;4211435;28;20279;-62
2023/03/06 01:33:02;;;;;;;6.80;3.63;;;2.60;99.00;;;;;;4212357;28;20302;-62
2023/03/06 01:35:05;;;;;;;6.93;3.90;;;2.60;99.10;;;;;;4210982;28;20734;-65
2023/03/06 01:37:06;;;;;;;11.30;4.47;;;2.50;99.20;;;;;;4212282;28;20257;-64
2023/03/06 01:39:07;;;;;;;7.40;4.07;;;2.50;99.40;;;;;;4211205;28;20264;-62
2023/03/06 01:41:09;;;;;;;7.40;4.67;;;2.40;99.50;;;;;;4211130;28;20272;-65
2023/03/06 01:43:28;;;;;;;8.30;3.80;;;2.40;99.60;;;;;;4192937;28;20886;-63
2023/03/06 01:45:29;;;;;;;9.73;3.90;;;2.30;99.90;;;;;;4207856;28;20276;-62
2023/03/06 01:47:31;;;;;;;7.03;3.60;;;2.30;99.90;;;;;;4211456;28;20257;-63
2023/03/06 01:49:38;;;;;;;5.93;3.20;;;2.20;99.90;;;;;;4211517;28;20253;-62
2023/03/06 01:51:56;;;;;;;7.40;3.93;;;2.20;99.90;;;;;;4211481;28;20257;-62
2023/03/06 01:54:01;;;;;;;8.67;3.93;;;2.20;99.90;;;;;;4211610;28;20326;-64
2023/03/06 01:56:02;;;;;;;7.37;4.17;;;2.20;99.90;;;;;;4210567;28;20272;-63
2023/03/06 01:58:09;;;;;;;9.13;4.50;;;2.10;99.90;;;;;;4211408;28;20719;-63
2023/03/06 02:00:22;;;;;;;12.60;6.60;;;2.10;99.90;;;;;;4211322;28;20285;-63
2023/03/06 02:02:24;;;;;;;12.93;5.40;;;2.10;99.90;;;;;;4210201;28;20300;-63
2023/03/06 02:04:26;;;;;;;17.07;9.57;;;2.10;99.90;;;;;;4210898;28;20280;-62
2023/03/06 02:06:27;;;;;;;12.50;7.87;;;2.00;99.90;;;;;;4210890;28;20298;-65
2023/03/06 02:08:29;;;;;;;9.80;5.33;;;2.00;99.90;;;;;;4211693;28;20316;-60
2023/03/06 02:10:30;;;;;;;10.87;4.90;;;2.00;99.90;;;;;;4210790;28;20739;-62
2023/03/06 02:12:31;;;;;;;8.13;4.07;;;2.00;99.90;;;;;;4211652;28;20610;-62
2023/03/06 02:14:33;;;;;;;8.60;4.13;;;2.00;99.90;;;;;;4210012;28;20277;-62
2023/03/06 02:16:34;;;;;;;8.90;4.57;;;2.00;99.90;;;;;;4211622;28;20280;-62
2023/03/06 02:18:37;;;;;;;6.37;4.00;;;2.00;99.90;;;;;;4210395;28;20269;-64
2023/03/06 02:20:53;;;;;;;6.27;3.53;;;2.00;99.90;;;;;;4211884;28;20597;-63
2023/03/06 02:23:01;;;;;;;7.60;4.73;;;2.00;99.90;;;;;;4210332;28;20293;-62
2023/03/06 02:25:32;;;;;;;5.33;3.20;;;1.90;99.90;;;;;;4210509;28;20341;-62
2023/03/06 02:27:34;;;;;;;8.05;3.78;;;2.00;99.90;;;;;;4210629;28;20264;-65
2023/03/06 02:29:35;;;;;;;6.50;3.23;;;1.90;99.90;;;;;;4211466;28;20105;-66
2023/03/06 02:31:36;;;;;;;5.67;3.47;;;1.90;99.90;;;;;;4210659;28;20269;-63
2023/03/06 02:33:37;;;;;;;6.80;3.73;;;1.90;99.90;;;;;;4211687;28;20253;-62
2023/03/06 02:35:40;;;;;;;5.57;3.50;;;1.90;99.90;;;;;;4209564;28;20314;-64
2023/03/06 02:37:41;;;;;;;7.40;3.97;;;1.90;99.90;;;;;;4211412;28;20306;-61
2023/03/06 02:39:48;;;;;;;9.20;4.40;;;1.80;99.90;;;;;;4210354;28;20653;-63
2023/03/06 02:41:49;;;;;;;7.20;3.47;;;1.90;99.90;;;;;;4211443;28;20272;-66
2023/03/06 02:43:51;;;;;;;7.73;3.70;;;1.80;99.90;;;;;;4210464;28;20421;-62
2023/03/06 02:45:53;;;;;;;13.07;5.20;;;1.80;99.90;;;;;;4211120;28;20318;-63
2023/03/06 02:47:54;;;;;;;9.17;4.53;;;1.80;99.90;;;;;;4209972;28;20253;-63
2023/03/06 02:49:55;;;;;;;11.13;5.00;;;1.70;99.90;;;;;;4209301;28;20343;-64
2023/03/06 02:51:56;;;;;;;9.90;4.70;;;1.70;99.90;;;;;;4211150;28;20295;-62
2023/03/06 02:53:57;;;;;;;10.17;4.80;;;1.60;99.90;;;;;;4209851;28;20272;-62
2023/03/06 02:55:59;;;;;;;7.43;3.77;;;1.50;99.90;;;;;;4211203;28;20284;-63
2023/03/06 02:58:01;;;;;;;10.73;4.30;;;1.30;99.90;;;;;;4210354;28;20249;-63
2023/03/06 03:00:03;;;;;;;12.90;5.50;;;1.30;99.90;;;;;;4211240;28;20257;-61
2023/03/06 03:02:04;;;;;;;14.50;5.77;;;1.20;99.90;;;;;;4193677;28;20273;-61
2023/03/06 03:04:05;;;;;;;14.73;5.40;;;1.20;99.90;;;;;;4198957;28;20292;-62
2023/03/06 03:06:07;;;;;;;13.13;4.90;;;1.20;99.90;;;;;;4209807;28;20280;-62
2023/03/06 03:08:08;;;;;;;7.17;4.23;;;1.10;99.90;;;;;;4211232;28;20322;-63
2023/03/06 03:10:10;;;;;;;7.13;4.10;;;1.10;99.90;;;;;;4210236;28;20813;-63
2023/03/06 03:12:11;;;;;;;11.83;4.80;;;1.00;99.90;;;;;;4210557;28;20280;-62
2023/03/06 03:14:12;;;;;;;11.20;4.63;;;1.00;99.90;;;;;;4210368;28;20245;-62
2023/03/06 03:16:16;;;;;;;10.73;4.03;;;1.00;99.90;;;;;;4210778;28;20311;-62
2023/03/06 03:18:17;;;;;;;8.77;3.63;;;0.90;99.90;;;;;;4210437;28;20298;-62
2023/03/06 03:20:20;;;;;;;6.77;4.10;;;0.90;99.90;;;;;;4209919;28;20277;-62
2023/03/06 03:22:22;;;;;;;10.07;4.83;;;0.90;99.90;;;;;;4209779;28;20276;-62
2023/03/06 03:24:23;;;;;;;9.60;4.87;;;0.80;99.90;;;;;;4209655;28;20768;-63
2023/03/06 03:26:25;;;;;;;8.87;4.70;;;0.80;99.90;;;;;;4209707;28;20273;-63
2023/03/06 03:28:26;;;;;;;9.80;4.30;;;0.80;99.90;;;;;;4209964;28;20314;-64
2023/03/06 03:30:27;;;;;;;9.87;4.17;;;0.80;99.90;;;;;;4210463;28;20687;-65
2023/03/06 03:32:28;;;;;;;8.43;4.13;;;0.80;99.90;;;;;;4209232;28;20273;-63
2023/03/06 03:34:29;;;;;;;10.63;4.23;;;0.80;99.90;;;;;;4211165;28;20265;-63
2023/03/06 03:36:32;;;;;;;11.00;4.80;;;0.80;99.90;;;;;;4211200;28;20605;-64
2023/03/06 03:38:34;;;;;;;12.20;4.70;;;0.80;99.90;;;;;;4214178;28;20315;-65
2023/03/06 03:40:37;;;;;;;11.33;4.67;;;0.70;99.90;;;;;;4213027;28;20658;-63
2023/03/06 03:42:38;;;;;;;9.97;5.13;;;0.70;99.90;;;;;;4213217;28;20281;-63
2023/03/06 03:44:39;;;;;;;15.07;6.80;;;0.70;99.90;;;;;;4212880;28;20276;-61
2023/03/06 03:46:40;;;;;;;16.50;7.87;;;0.60;99.90;;;;;;4213466;28;20268;-64
2023/03/06 03:48:41;;;;;;;12.03;6.43;;;0.60;99.90;;;;;;4212750;28;20581;-62
2023/03/06 03:50:42;;;;;;;13.83;6.93;;;0.50;99.90;;;;;;4212616;28;20256;-63
2023/03/06 03:52:44;;;;;;;19.47;7.17;;;0.40;99.90;;;;;;4212121;28;20256;-62
2023/03/06 03:54:45;;;;;;;11.70;6.10;;;0.30;99.90;;;;;;4213553;28;20272;-66
2023/03/06 03:56:46;;;;;;;17.47;7.00;;;0.20;99.90;;;;;;4213296;28;20302;-62
2023/03/06 03:58:47;;;;;;;9.77;5.47;;;0.10;99.90;;;;;;4212710;28;20264;-62
2023/03/06 04:00:48;;;;;;;9.93;5.27;;;0.10;99.90;;;;;;4213326;28;20273;-65
2023/03/06 04:02:49;;;;;;;8.07;4.67;;;0.10;99.90;;;;;;4208320;28;20358;-63
2023/03/06 04:04:51;;;;;;;9.10;4.90;;;0.10;99.90;;;;;;4210424;28;20690;-62
2023/03/06 04:06:52;;;;;;;10.83;4.93;;;0.10;99.90;;;;;;4212357;28;20330;-66
2023/03/06 04:08:53;;;;;;;8.50;5.17;;;0.10;99.90;;;;;;4213712;28;20265;-63
2023/03/06 04:10:54;;;;;;;11.07;6.00;;;0.10;99.90;;;;;;4212736;28;20268;-63
2023/03/06 04:12:56;;;;;;;14.67;6.40;;;0.10;99.90;;;;;;4212869;28;20318;-64
2023/03/06 04:14:57;;;;;;;12.23;5.80;;;0.10;99.90;;;;;;4212598;28;20318;-64
2023/03/06 04:16:59;;;;;;;14.03;6.00;;;0.10;99.90;;;;;;4213360;28;20326;-64
2023/03/06 04:19:00;;;;;;;21.27;6.67;;;0.10;99.90;;;;;;4211892;28;20273;-62
2023/03/06 04:21:01;;;;;;;17.57;7.27;;;0.10;99.90;;;;;;4212783;28;20333;-65
2023/03/06 04:23:02;;;;;;;18.07;7.23;;;0.10;99.90;;;;;;4212295;28;20814;-62
2023/03/06 04:25:04;;;;;;;24.77;7.53;;;0.10;99.90;;;;;;4212522;28;20315;-62
2023/03/06 04:27:05;;;;;;;16.63;6.87;;;0.00;99.90;;;;;;4212567;28;20647;-61
2023/03/06 04:29:06;;;;;;;15.63;7.27;;;0.00;99.90;;;;;;4212297;28;20318;-62
2023/03/06 04:31:09;;;;;;;12.00;5.77;;;0.00;99.90;;;;;;4213065;28;20338;-62
2023/03/06 04:33:11;;;;;;;16.73;7.10;;;0.00;99.90;;;;;;4211718;28;20736;-63
2023/03/06 04:35:12;;;;;;;19.13;7.30;;;0.00;99.90;;;;;;4213186;28;20786;-61
2023/03/06 04:37:19;;;;;;;16.17;7.80;;;-0.10;99.90;;;;;;4211927;28;20265;-62
2023/03/06 04:39:21;;;;;;;17.93;8.27;;;-0.20;99.90;;;;;;4212690;28;20257;-62
2023/03/06 04:41:22;;;;;;;17.27;8.43;;;-0.20;99.90;;;;;;4210921;28;20288;-62
2023/03/06 04:43:23;;;;;;;18.10;8.10;;;-0.30;99.90;;;;;;4212824;28;20334;-62
2023/03/06 04:45:25;;;;;;;19.00;8.77;;;-0.30;99.90;;;;;;4211407;28;20280;-64
2023/03/06 04:47:27;;;;;;;17.67;8.30;;;-0.30;99.90;;;;;;4212636;28;20256;-62
2023/03/06 04:49:28;;;;;;;20.37;8.70;;;-0.30;99.90;;;;;;4211269;28;20268;-61
2023/03/06 04:51:29;;;;;;;18.00;8.57;;;-0.30;99.90;;;;;;4211858;28;20333;-63
2023/03/06 04:53:31;;;;;;;22.97;8.83;;;-0.30;99.90;;;;;;4211304;28;20314;-62
2023/03/06 04:55:33;;;;;;;19.37;9.10;;;-0.40;99.90;;;;;;4212247;28;20280;-61
2023/03/06 04:57:39;;;;;;;23.53;9.40;;;-0.40;99.90;;;;;;4211448;28;20589;-62
2023/03/06 04:59:40;;;;;;;18.27;8.33;;;-0.40;99.90;;;;;;4211000;28;20329;-62
2023/03/06 05:01:41;;;;;;;19.80;8.63;;;-0.40;99.90;;;;;;4211728;28;20303;-61
2023/03/06 05:03:42;;;;;;;19.33;8.57;;;-0.40;99.90;;;;;;4210197;28;20301;-60
2023/03/06 05:05:43;;;;;;;26.83;9.67;;;-0.40;99.90;;;;;;4211533;28;20268;-62
2023/03/06 05:07:45;;;;;;;24.03;9.87;;;-0.40;99.90;;;;;;4210674;28;20269;-61
2023/03/06 05:09:46;;;;;;;23.63;9.83;;;-0.40;99.90;;;;;;4212447;28;20740;-63
2023/03/06 05:11:47;;;;;;;27.73;10.30;;;-0.40;99.90;;;;;;4208594;28;20276;-62
2023/03/06 05:13:48;;;;;;;24.53;8.90;;;-0.40;99.90;;;;;;4211032;28;20330;-63
2023/03/06 05:15:50;;;;;;;19.20;8.10;;;-0.40;99.90;;;;;;4211004;28;20319;-61
2023/03/06 05:17:51;;;;;;;22.23;7.53;;;-0.30;99.90;;;;;;4212034;28;21239;-64
2023/03/06 05:19:52;;;;;;;18.27;7.83;;;-0.30;99.90;;;;;;4210739;28;20272;-63
2023/03/06 05:21:53;;;;;;;25.87;8.63;;;-0.30;99.90;;;;;;4211517;28;20280;-65
2023/03/06 05:23:54;;;;;;;23.47;8.57;;;-0.20;99.90;;;;;;4210516;28;20288;-62
2023/03/06 05:25:56;;;;;;;24.17;9.67;;;-0.10;99.90;;;;;;4211144;28;20260;-63
2023/03/06 05:27:57;;;;;;;25.57;9.60;;;-0.10;99.90;;;;;;4194804;28;20261;-62
2023/03/06 05:29:58;;;;;;;29.90;10.80;;;0.00;99.90;;;;;;4199764;28;20261;-63
2023/03/06 05:31:59;;;;;;;26.17;11.63;;;0.00;99.90;;;;;;4210526;28;20280;-62
2023/03/06 05:34:01;;;;;;;28.87;11.50;;;0.00;99.90;;;;;;4196650;28;20290;-62
2023/03/06 05:36:03;;;;;;;34.17;11.83;;;0.00;99.90;;;;;;4197573;28;20270;-61
2023/03/06 05:38:04;;;;;;;29.73;12.73;;;-0.10;99.90;;;;;;4210211;28;20280;-61
2023/03/06 05:40:08;;;;;;;31.07;12.40;;;-0.10;99.90;;;;;;4211250;28;20322;-62
2023/03/06 05:42:09;;;;;;;32.43;12.73;;;0.00;99.90;;;;;;4210084;28;20278;-65
2023/03/06 05:44:10;;;;;;;30.87;13.07;;;-0.10;99.90;;;;;;4211274;28;20676;-61
2023/03/06 05:46:11;;;;;;;27.00;12.87;;;-0.10;99.90;;;;;;4209867;28;20284;-63
2023/03/06 05:48:13;;;;;;;32.37;10.77;;;0.00;99.90;;;;;;4211402;28;20306;-61
2023/03/06 05:50:14;;;;;;;29.37;13.37;;;0.00;99.90;;;;;;4209539;28;20678;-61
2023/03/06 05:52:16;;;;;;;23.13;10.20;;;-0.10;99.90;;;;;;4211071;28;20816;-62
2023/03/06 05:54:17;;;;;;;28.43;10.57;;;0.00;99.90;;;;;;4211335;28;20249;-61
2023/03/06 05:56:20;;;;;;;28.70;10.37;;;0.00;99.90;;;;;;4211796;28;20281;-64
2023/03/06 05:58:21;;;;;;;25.77;10.90;;;0.00;99.90;;;;;;4210890;28;20401;-60
2023/03/06 06:00:23;;;;;;;25.33;10.47;;;0.10;99.90;;;;;;4209827;28;20301;-62
2023/03/06 06:02:24;;;;;;;31.47;11.50;;;0.20;99.90;;;;;;4209785;28;20269;-62
2023/03/06 06:04:26;;;;;;;29.47;11.50;;;0.30;99.90;;;;;;4209795;28;20293;-61
2023/03/06 06:06:27;;;;;;;26.30;10.20;;;0.40;99.90;;;;;;4210712;28;20417;-64
2023/03/06 06:08:28;;;;;;;22.93;11.17;;;0.60;99.90;;;;;;4209492;28;20876;-62
2023/03/06 06:10:29;;;;;;;27.77;11.70;;;0.80;99.90;;;;;;4210779;28;20340;-62
2023/03/06 06:12:31;;;;;;;28.43;12.83;;;1.00;99.90;;;;;;4210231;28;20256;-63
2023/03/06 06:14:33;;;;;;;27.03;11.73;;;1.30;99.90;;;;;;4211354;28;20261;-62
2023/03/06 06:16:34;;;;;;;25.97;12.20;;;1.60;99.90;;;;;;4210283;28;20698;-62
2023/03/06 06:18:35;;;;;;;24.30;10.17;;;1.80;99.90;;;;;;4210472;28;20272;-62
2023/03/06 06:20:37;;;;;;;21.00;10.57;;;2.00;99.90;;;;;;4210222;28;20268;-66
2023/03/06 06:22:38;;;;;;;25.40;10.07;;;2.50;99.90;;;;;;4211114;28;20281;-65
2023/03/06 06:24:39;;;;;;;27.90;10.50;;;2.80;99.90;;;;;;4210080;28;20338;-64
2023/03/06 06:26:41;;;;;;;25.93;10.70;;;3.40;99.90;;;;;;4211308;28;20277;-62
2023/03/06 06:28:42;;;;;;;32.23;11.30;;;3.90;99.90;;;;;;4209616;28;20269;-65
2023/03/06 06:30:43;;;;;;;31.23;12.10;;;4.40;99.90;;;;;;4208285;28;20314;-67
2023/03/06 06:32:45;;;;;;;24.13;10.53;;;4.80;99.90;;;;;;4210730;28;20261;-62
2023/03/06 06:34:46;;;;;;;31.13;11.37;;;5.40;99.90;;;;;;4209431;28;20359;-66
2023/03/06 06:36:48;;;;;;;21.83;11.63;;;5.90;99.90;;;;;;4209782;28;20264;-64
2023/03/06 06:38:49;;;;;;;26.33;10.40;;;6.30;99.90;;;;;;4208897;28;20354;-63
2023/03/06 06:40:50;;;;;;;23.50;10.67;;;6.40;99.90;;;;;;4210266;28;20292;-64
2023/03/06 06:42:51;;;;;;;22.53;8.87;;;6.80;99.90;;;;;;4209211;28;20310;-65
2023/03/06 06:44:52;;;;;;;21.90;9.43;;;6.90;99.90;;;;;;4211136;28;20851;-64
2023/03/06 06:46:53;;;;;;;18.13;8.17;;;7.30;99.90;;;;;;4209469;28;20097;-62
2023/03/06 06:48:55;;;;;;;22.07;10.53;;;7.40;99.90;;;;;;4211126;28;20479;-62
2023/03/06 06:50:57;;;;;;;22.63;9.27;;;7.20;99.90;;;;;;4210257;28;20364;-62
2023/03/06 06:52:58;;;;;;;13.07;7.17;;;7.00;99.70;;;;;;4210549;28;20039;-65
2023/03/06 06:54:59;;;;;;;15.03;8.20;;;6.70;99.70;;;;;;4209760;28;20039;-64
2023/03/06 06:57:00;;;;;;;17.27;8.70;;;6.70;99.90;;;;;;4210861;28;20430;-63
2023/03/06 06:59:03;;;;;;;20.27;9.43;;;6.70;99.70;;;;;;4191700;28;20033;-62
2023/03/06 07:01:08;;;;;;;26.43;9.77;;;6.90;99.60;;;;;;4209627;28;20036;-63
2023/03/06 07:03:11;;;;;;;28.20;9.57;;;6.70;99.40;;;;;;4210216;28;20354;-62
2023/03/06 07:05:12;;;;;;;18.57;8.73;;;6.70;99.20;;;;;;4208966;28;20414;-64
2023/03/06 07:07:13;;;;;;;29.27;9.80;;;6.70;99.00;;;;;;4209616;28;20040;-65
2023/03/06 07:09:15;;;;;;;24.93;9.73;;;7.00;99.00;;;;;;4209228;28;20035;-66
2023/03/06 07:11:17;;;;;;;21.10;8.73;;;7.30;98.50;;;;;;4210482;28;20113;-65
2023/03/06 07:13:18;;;;;;;15.60;8.67;;;7.60;98.00;;;;;;4213149;28;20028;-67
2023/03/06 07:15:19;;;;;;;20.10;7.87;;;7.50;97.60;;;;;;4214251;28;20036;-63
2023/03/06 07:17:21;;;;;;;13.10;6.57;;;7.50;97.50;;;;;;4213038;28;20040;-68
2023/03/06 07:19:22;;;;;;;14.53;6.53;;;7.30;96.70;;;;;;4214141;28;20066;-62
2023/03/06 07:21:23;;;;;;;15.67;7.77;;;7.20;97.10;;;;;;4213080;28;20085;-63
2023/03/06 07:23:25;;;;;;;20.10;8.47;;;7.60;96.90;;;;;;4213793;28;20044;-65
2023/03/06 07:25:26;;;;;;;18.57;9.13;;;8.10;96.60;;;;;;4213099;28;20032;-64
2023/03/06 07:27:27;;;;;;;14.97;9.50;;;8.70;96.00;;;;;;4214265;28;20028;-66
2023/03/06 07:29:31;;;;;;;14.13;7.77;;;9.20;95.10;;;;;;4213033;28;20517;-68
2023/03/06 07:31:32;;;;;;;15.43;8.17;;;9.10;94.40;;;;;;4213631;28;20028;-69
2023/03/06 07:33:33;;;;;;;10.87;6.60;;;9.20;94.20;;;;;;4212650;28;20044;-64
2023/03/06 07:35:34;;;;;;;12.67;6.40;;;9.10;93.70;;;;;;4213572;28;20476;-68
2023/03/06 07:37:36;;;;;;;12.60;6.50;;;9.00;93.80;;;;;;4194883;28;20484;-65
2023/03/06 07:39:37;;;;;;;10.10;6.33;;;8.90;93.70;;;;;;4212957;28;20032;-65
2023/03/06 07:41:38;;;;;;;13.50;7.23;;;8.80;93.60;;;;;;4212907;28;20036;-63
2023/03/06 07:43:40;;;;;;;16.43;7.50;;;8.70;93.20;;;;;;4212740;28;20073;-67
2023/03/06 07:45:41;;;;;;;16.90;10.47;;;8.60;93.20;;;;;;4212953;28;20048;-67
2023/03/06 07:47:42;;;;;;;12.60;6.67;;;8.10;93.50;;;;;;4212829;28;20043;-64
2023/03/06 07:49:43;;;;;;;13.27;6.30;;;7.80;93.80;;;;;;4213799;28;20625;-63
2023/03/06 07:51:44;;;;;;;10.60;5.50;;;7.20;92.80;;;;;;4212652;28;20031;-64
2023/03/06 07:53:46;;;;;;;11.70;5.30;;;6.70;93.40;;;;;;4213452;28;20028;-63
2023/03/06 07:55:47;;;;;;;11.67;5.70;;;6.20;93.90;;;;;;4211698;28;20044;-64
2023/03/06 07:57:50;;;;;;;11.23;5.33;;;6.30;94.30;;;;;;4213768;28;20089;-64
2023/03/06 07:59:51;;;;;;;15.43;6.67;;;6.20;94.30;;;;;;4212485;28;20054;-65
2023/03/06 08:01:54;;;;;;;12.47;5.90;;;6.40;94.40;;;;;;4213317;28;20023;-64
2023/03/06 08:03:55;;;;;;;14.37;6.40;;;6.50;94.30;;;;;;4211832;28;20052;-64
2023/03/06 08:06:10;;;;;;;11.30;6.17;;;6.50;94.40;;;;;;4212810;28;20464;-65
2023/03/06 08:08:11;;;;;;;14.53;6.70;;;6.50;94.10;;;;;;4212526;28;20058;-65
2023/03/06 08:10:14;;;;;;;17.17;7.13;;;6.60;94.20;;;;;;4212880;28;20426;-69
2023/03/06 08:12:15;;;;;;;15.20;7.60;;;6.70;94.10;;;;;;4211913;28;20109;-64
2023/03/06 08:14:16;;;;;;;17.80;7.63;;;6.50;93.90;;;;;;4212196;28;20097;-63
2023/03/06 08:16:22;;;;;;;19.40;8.17;;;6.00;94.00;;;;;;4212960;28;20028;-67
2023/03/06 08:18:23;;;;;;;18.53;7.73;;;6.10;94.80;;;;;;4212106;28;20471;-63
2023/03/06 08:20:24;;;;;;;14.80;7.00;;;6.00;94.30;;;;;;4212216;28;20044;-67
2023/03/06 08:22:25;;;;;;;14.67;6.97;;;5.80;94.50;;;;;;4211279;28;20385;-64
2023/03/06 08:24:27;;;;;;;19.33;7.70;;;5.60;94.70;;;;;;4212668;28;20116;-65
2023/03/06 08:26:30;;;;;;;14.13;6.97;;;5.60;94.90;;;;;;4212071;28;20077;-63
2023/03/06 08:28:32;;;;;;;17.80;7.00;;;5.80;95.00;;;;;;4213168;28;20113;-66
2023/03/06 08:30:33;;;;;;;12.07;6.03;;;5.80;94.80;;;;;;4211945;28;20031;-62
2023/03/06 08:32:37;;;;;;;18.37;6.63;;;5.90;94.80;;;;;;4213341;28;20445;-67
2023/03/06 08:34:39;;;;;;;12.40;5.57;;;5.60;94.50;;;;;;4193615;28;20511;-67
2023/03/06 08:36:41;;;;;;;16.00;6.67;;;5.30;94.60;;;;;;4212918;28;20077;-68
2023/03/06 08:38:42;;;;;;;15.93;6.13;;;5.20;95.10;;;;;;4211153;28;20554;-64
2023/03/06 08:40:43;;;;;;;19.10;7.37;;;5.10;94.90;;;;;;4212730;28;20020;-68
2023/03/06 08:42:46;;;;;;;15.57;6.00;;;5.10;95.20;;;;;;4211185;28;20261;-63
2023/03/06 08:44:48;;;;;;;8.97;4.97;;;5.10;95.00;;;;;;4212158;28;20641;-65
2023/03/06 08:46:49;;;;;;;9.80;4.40;;;5.30;94.30;;;;;;4212297;28;20249;-67
2023/03/06 08:48:50;;;;;;;13.53;6.10;;;5.50;93.20;;;;;;4210711;28;20483;-64
2023/03/06 08:50:52;;;;;;;11.70;6.33;;;5.70;93.50;;;;;;4194018;28;20792;-64
2023/03/06 08:52:53;;;;;;;15.57;5.60;;;5.70;93.20;;;;;;4211432;28;20077;-64
2023/03/06 08:54:54;;;;;;;13.33;6.23;;;5.80;93.30;;;;;;4212807;28;20070;-66
2023/03/06 08:56:55;;;;;;;15.23;6.23;;;5.70;93.40;;;;;;4211369;28;20724;-66
2023/03/06 08:58:58;;;;;;;12.10;6.37;;;5.80;93.50;;;;;;4211589;28;20269;-67
2023/03/06 09:01:02;;;;;;;10.93;6.80;;;5.80;93.50;;;;;;4211312;28;20082;-65
2023/03/06 09:03:04;;;;;;;15.47;6.57;;;5.80;93.60;;;;;;4212479;28;20085;-65
2023/03/06 09:05:07;;;;;;;19.17;5.70;;;5.60;92.70;;;;;;4211172;28;20177;-63
2023/03/06 09:07:08;;;;;;;11.83;5.30;;;5.50;92.50;;;;;;4212485;28;20600;-63
2023/03/06 09:09:10;;;;;;;15.77;5.37;;;5.50;92.20;;;;;;4211066;28;20546;-67
2023/03/06 09:11:13;;;;;;;10.33;4.87;;;5.50;92.50;;;;;;4212158;28;20302;-66
2023/03/06 09:13:14;;;;;;;9.17;4.77;;;5.60;92.10;;;;;;4211403;28;20370;-67
2023/03/06 09:15:16;;;;;;;8.30;4.40;;;5.60;92.10;;;;;;4211103;28;20261;-67
2023/03/06 09:17:17;;;;;;;10.10;4.60;;;5.70;91.80;;;;;;4210910;28;20257;-68
2023/03/06 09:19:18;;;;;;;11.93;4.83;;;5.70;91.70;;;;;;4211361;28;20326;-65
2023/03/06 09:21:21;;;;;;;8.93;4.83;;;5.90;91.60;;;;;;4211812;28;20276;-67
2023/03/06 09:23:22;;;;;;;11.40;5.10;;;6.00;90.90;;;;;;4210882;28;20351;-67
2023/03/06 09:25:23;;;;;;;13.57;4.93;;;6.10;91.00;;;;;;4211973;28;20365;-64
2023/03/06 09:27:27;;;;;;;19.17;4.93;;;6.50;91.30;;;;;;4191994;28;20048;-67
2023/03/06 09:29:28;;;;;;;14.30;4.83;;;6.80;90.90;;;;;;4210732;28;20086;-64
2023/03/06 09:31:30;;;;;;;9.80;3.70;;;7.00;90.40;;;;;;4210757;28;20036;-63
2023/03/06 09:33:32;;;;;;;12.53;5.13;;;7.30;90.10;;;;;;4212006;28;20028;-66
2023/03/06 09:35:33;;;;;;;11.50;5.37;;;7.60;89.10;;;;;;4210544;28;20457;-64
2023/03/06 09:37:34;;;;;;;8.17;4.63;;;7.90;88.20;;;;;;4211675;28;20031;-63
2023/03/06 09:39:35;;;;;;;7.80;3.53;;;7.90;87.50;;;;;;4210119;28;20439;-64
2023/03/06 09:41:39;;;;;;;14.30;3.87;;;7.80;85.30;;;;;;4211935;28;20052;-68
2023/03/06 09:43:45;;;;;;;11.33;3.60;;;8.00;86.30;;;;;;4210720;28;20085;-70
2023/03/06 09:45:46;;;;;;;8.17;4.17;;;8.30;85.70;;;;;;4211686;28;20183;-65
2023/03/06 09:48:13;;;;;;;10.80;3.90;;;8.60;84.90;;;;;;4192393;28;20523;-64
2023/03/06 09:50:44;;;;;;;8.47;4.03;;;8.90;81.00;;;;;;4211812;28;20101;-67
2023/03/06 09:52:55;;;;;;;12.57;4.87;;;8.50;80.70;;;;;;4209484;28;20483;-64
2023/03/06 09:54:58;;;;;;;13.02;4.75;;;8.10;83.00;;;;;;4210847;28;20039;-67
2023/03/06 09:56:59;;;;;;;12.13;5.00;;;7.90;83.70;;;;;;4210534;28;20152;-64
2023/03/06 09:59:16;;;;;;;8.97;4.30;;;7.80;83.90;;;;;;4210972;28;20093;-65
2023/03/06 10:01:33;;;;;;;9.10;4.00;;;8.00;83.80;;;;;;4210421;28;20615;-65
2023/03/06 10:03:40;;;;;;;9.93;4.00;;;8.00;83.20;;;;;;4211380;28;20028;-65
2023/03/06 10:05:48;;;;;;;10.23;3.33;;;8.20;83.90;;;;;;4210134;28;20662;-65
2023/03/06 10:08:00;;;;;;;8.20;4.23;;;8.50;83.70;;;;;;4211285;28;20036;-63
2023/03/06 10:10:05;;;;;;;7.90;3.40;;;8.40;81.70;;;;;;4210274;28;20073;-67
2023/03/06 10:12:19;;;;;;;9.30;3.90;;;8.40;81.50;;;;;;4211352;28;20093;-68
2023/03/06 10:14:40;;;;;;;7.00;3.70;;;8.50;81.50;;;;;;4209634;28;20121;-67
2023/03/06 10:16:41;;;;;;;6.90;3.42;;;8.60;80.20;;;;;;4210447;28;20089;-65
2023/03/06 10:18:43;;;;;;;6.77;3.77;;;8.50;80.50;;;;;;4209310;28;20036;-67
2023/03/06 10:20:58;;;;;;;5.87;3.43;;;8.50;80.40;;;;;;4211245;28;20082;-66
2023/03/06 10:23:23;;;;;;;10.60;4.23;;;8.70;79.10;;;;;;4209536;28;20598;-67
2023/03/06 10:25:35;;;;;;;6.10;3.17;;;8.80;78.60;;;;;;4211106;28;20086;-63
2023/03/06 10:27:42;;;;;;;5.77;3.10;;;8.90;80.10;;;;;;4209106;28;20082;-63
2023/03/06 10:29:50;;;;;;;6.03;2.77;;;9.00;78.70;;;;;;4211035;28;20536;-62
2023/03/06 10:32:06;;;;;;;4.60;2.70;;;9.00;77.60;;;;;;4209898;28;20066;-66
2023/03/06 10:34:19;;;;;;;5.53;2.67;;;8.90;77.60;;;;;;4210984;28;20086;-64
2023/03/06 10:36:26;;;;;;;6.20;3.00;;;8.70;77.00;;;;;;4209800;28;20020;-64
2023/03/06 10:38:37;;;;;;;6.60;3.57;;;8.70;77.30;;;;;;4210475;28;20105;-63
2023/03/06 10:41:13;;;;;;;6.23;4.10;;;8.70;77.40;;;;;;4209725;28;20016;-63